createdAt,value
2018-10-18T00:01:36.924Z,75.29
2018-10-18T00:04:08.002Z,74.72
2018-10-18T00:06:38.014Z,75.27
2018-10-18T00:09:10.398Z,74.80
2018-10-18T00:11:39.768Z,74.83
2018-10-18T00:14:09.327Z,75.00
2018-10-18T00:16:38.838Z,74.95
2018-10-18T00:19:08.572Z,75.59
2018-10-18T00:21:38.707Z,75.52
2018-10-18T00:24:08.982Z,75.22
2018-10-18T00:26:38.135Z,75.67
2018-10-18T00:29:08.460Z,75.31
2018-10-18T00:31:37.492Z,75.60
2018-10-18T00:34:06.682Z,75.32
2018-10-18T00:36:36.313Z,75.62
2018-10-18T00:39:08.052Z,75.92
2018-10-18T00:41:37.917Z,75.42
2018-10-18T00:44:08.326Z,75.95
2018-10-18T00:46:38.112Z,75.37
2018-10-18T00:49:08.035Z,75.30
2018-10-18T00:51:38.496Z,75.88
2018-10-18T00:54:08.824Z,75.86
2018-10-18T00:56:38.169Z,75.30
2018-10-18T00:59:07.885Z,75.43
2018-10-18T01:01:38.052Z,75.48
2018-10-18T01:04:07.258Z,75.76
2018-10-18T01:06:37.376Z,75.45
2018-10-18T01:09:10.242Z,75.65
2018-10-18T01:11:39.763Z,75.76
2018-10-18T01:14:10.101Z,75.71
2018-10-18T01:16:40.902Z,75.70
2018-10-18T01:19:10.891Z,75.74
2018-10-18T01:21:40.987Z,75.53
2018-10-18T01:24:10.535Z,75.30
2018-10-18T01:26:39.467Z,75.58
2018-10-18T01:29:09.608Z,75.36
2018-10-18T01:31:38.546Z,75.49
2018-10-18T01:34:09.302Z,75.52
2018-10-18T01:36:39.013Z,75.46
2018-10-18T01:39:08.748Z,75.03
2018-10-18T01:41:37.657Z,75.44
2018-10-18T01:44:07.168Z,74.84
2018-10-18T01:46:36.528Z,74.95
2018-10-18T01:49:05.662Z,75.15
2018-10-18T01:51:34.780Z,75.30
2018-10-18T01:54:04.958Z,75.63
2018-10-18T01:56:33.936Z,75.27
2018-10-18T01:59:03.701Z,75.27
2018-10-18T02:01:33.490Z,75.29
2018-10-18T02:04:03.322Z,76.02
2018-10-18T02:06:32.275Z,75.59
2018-10-18T02:09:02.145Z,75.34
2018-10-18T02:11:31.787Z,76.20
2018-10-18T02:14:01.556Z,76.31
2018-10-18T02:16:30.872Z,76.46
2018-10-18T02:19:00.503Z,75.62
2018-10-18T02:21:29.608Z,76.13
2018-10-18T02:23:58.956Z,75.79
2018-10-18T02:26:28.147Z,76.01
2018-10-18T02:28:58.145Z,75.79
2018-10-18T02:31:28.581Z,75.68
2018-10-18T02:33:57.845Z,75.79
2018-10-18T02:36:27.360Z,76.01
2018-10-18T02:38:57.643Z,76.58
2018-10-18T02:41:26.672Z,76.05
2018-10-18T02:43:58.952Z,76.01
2018-10-18T02:46:28.867Z,76.22
2018-10-18T02:48:58.571Z,76.04
2018-10-18T02:51:27.935Z,76.70
2018-10-18T02:53:57.347Z,76.67
2018-10-18T02:56:28.041Z,76.29
2018-10-18T02:58:57.067Z,76.87
2018-10-18T03:01:27.987Z,76.51
2018-10-18T03:03:56.878Z,76.58
2018-10-18T03:06:26.622Z,76.72
2018-10-18T03:08:56.220Z,76.35
2018-10-18T03:11:26.987Z,76.90
2018-10-18T03:13:56.590Z,76.31
2018-10-18T03:16:26.862Z,76.60
2018-10-18T03:18:56.673Z,77.13
2018-10-18T03:21:25.827Z,76.77
2018-10-18T03:23:55.836Z,76.74
2018-10-18T03:26:26.201Z,76.44
2018-10-18T03:28:56.632Z,76.88
2018-10-18T03:31:25.852Z,76.62
2018-10-18T03:33:54.804Z,76.99
2018-10-18T03:36:24.495Z,76.83
2018-10-18T03:38:53.482Z,76.95
2018-10-18T03:41:23.350Z,76.67
2018-10-18T03:43:53.134Z,76.70
2018-10-18T03:46:22.736Z,76.19
2018-10-18T03:48:51.793Z,76.07
2018-10-18T03:51:22.499Z,76.81
2018-10-18T03:53:51.349Z,76.81
2018-10-18T03:56:21.020Z,76.83
2018-10-18T03:58:50.661Z,76.29
2018-10-18T04:01:20.609Z,76.36
2018-10-18T04:03:49.829Z,76.73
2018-10-18T04:06:20.101Z,76.65
2018-10-18T04:08:49.567Z,76.14
2018-10-18T04:11:18.963Z,76.64
2018-10-18T04:13:48.429Z,76.72
2018-10-18T04:16:17.313Z,76.15
2018-10-18T04:18:46.563Z,76.89
2018-10-18T04:21:15.781Z,76.85
2018-10-18T04:23:44.618Z,76.54
2018-10-18T04:26:14.223Z,77.12
2018-10-18T04:28:43.699Z,76.61
2018-10-18T04:31:13.511Z,77.01
2018-10-18T04:33:43.478Z,76.69
2018-10-18T04:36:13.962Z,76.74
2018-10-18T04:38:42.958Z,77.07
2018-10-18T04:41:13.319Z,76.54
2018-10-18T04:43:44.161Z,76.50
2018-10-18T04:46:14.174Z,76.30
2018-10-18T04:48:43.332Z,76.82
2018-10-18T04:51:15.770Z,76.49
2018-10-18T04:53:45.523Z,76.52
2018-10-18T04:56:15.286Z,76.63
2018-10-18T04:58:45.037Z,77.06
2018-10-18T05:01:15.931Z,76.73
2018-10-18T05:03:46.344Z,77.00
2018-10-18T05:06:16.024Z,76.88
2018-10-18T05:08:45.967Z,77.05
2018-10-18T05:11:15.690Z,77.02
2018-10-18T05:13:45.423Z,76.74
2018-10-18T05:16:14.725Z,76.76
2018-10-18T05:18:43.633Z,77.21
2018-10-18T05:21:13.418Z,77.19
2018-10-18T05:23:43.158Z,76.61
2018-10-18T05:26:14.021Z,77.13
2018-10-18T05:28:44.523Z,77.29
2018-10-18T05:31:13.939Z,77.02
2018-10-18T05:33:43.990Z,76.58
2018-10-18T05:36:13.393Z,76.63
2018-10-18T05:38:42.599Z,76.52
2018-10-18T05:41:13.101Z,76.78
2018-10-18T05:43:43.379Z,77.17
2018-10-18T05:46:12.367Z,77.07
2018-10-18T05:48:43.370Z,77.42
2018-10-18T05:51:13.046Z,76.82
2018-10-18T05:53:42.785Z,77.25
2018-10-18T05:56:12.178Z,77.30
2018-10-18T05:58:41.317Z,76.85
2018-10-18T06:01:10.938Z,76.79
2018-10-18T06:03:40.049Z,76.99
2018-10-18T06:06:09.383Z,77.35
2018-10-18T06:08:39.194Z,77.43
2018-10-18T06:11:32.175Z,76.98
2018-10-18T06:14:02.976Z,77.21
2018-10-18T06:16:32.383Z,77.45
2018-10-18T06:19:02.313Z,77.80
2018-10-18T06:21:31.355Z,77.26
2018-10-18T06:24:00.460Z,77.77
2018-10-18T06:26:29.661Z,77.74
2018-10-18T06:28:59.177Z,77.28
2018-10-18T06:31:29.032Z,77.42
2018-10-18T06:33:58.458Z,78.09
2018-10-18T06:36:27.572Z,78.49
2018-10-18T06:38:56.630Z,77.83
2018-10-18T06:41:25.610Z,78.21
2018-10-18T06:43:54.682Z,78.38
2018-10-18T06:46:24.124Z,77.78
2018-10-18T06:48:54.159Z,77.81
2018-10-18T06:51:27.063Z,78.39
2018-10-18T06:53:56.457Z,77.62
2018-10-18T06:56:26.210Z,77.60
2018-10-18T06:58:56.215Z,78.20
2018-10-18T07:01:26.083Z,77.56
2018-10-18T07:03:55.070Z,78.07
2018-10-18T07:06:24.469Z,77.87
2018-10-18T07:08:54.169Z,77.81
2018-10-18T07:11:23.989Z,77.59
2018-10-18T07:13:54.286Z,77.59
2018-10-18T07:16:23.579Z,77.43
2018-10-18T07:18:52.928Z,76.44
2018-10-18T07:21:22.019Z,76.66
2018-10-18T07:23:53.386Z,76.70
2018-10-18T07:26:22.468Z,76.54
2018-10-18T07:28:51.897Z,76.42
2018-10-18T07:31:21.396Z,76.21
2018-10-18T07:33:51.412Z,76.80
2018-10-18T07:36:20.669Z,77.02
2018-10-18T07:38:49.465Z,77.18
2018-10-18T07:41:18.564Z,77.07
2018-10-18T07:43:47.492Z,77.06
2018-10-18T07:46:16.552Z,77.62
2018-10-18T07:48:45.780Z,77.70
2018-10-18T07:51:14.774Z,78.11
2018-10-18T07:53:44.144Z,77.65
2018-10-18T07:56:13.514Z,77.42
2018-10-18T07:58:42.498Z,77.43
2018-10-18T08:01:12.297Z,77.87
2018-10-18T08:03:41.390Z,77.85
2018-10-18T08:06:11.060Z,77.19
2018-10-18T08:08:40.560Z,77.37
2018-10-18T08:11:09.980Z,77.33
2018-10-18T08:13:39.953Z,77.26
2018-10-18T08:16:09.100Z,77.29
2018-10-18T08:18:38.544Z,77.20
2018-10-18T08:21:07.680Z,77.66
2018-10-18T08:23:36.928Z,76.64
2018-10-18T08:26:06.223Z,77.16
2018-10-18T08:28:35.765Z,76.94
2018-10-18T08:31:05.158Z,76.30
2018-10-18T08:33:34.677Z,75.80
2018-10-18T08:36:03.919Z,76.05
2018-10-18T08:38:34.081Z,75.84
2018-10-18T08:41:03.317Z,75.29
2018-10-18T08:43:33.763Z,75.00
2018-10-18T08:46:03.227Z,74.72
2018-10-18T08:48:32.767Z,74.51
2018-10-18T08:51:02.889Z,75.03
2018-10-18T08:53:32.059Z,74.53
2018-10-18T08:56:02.020Z,74.79
2018-10-18T08:58:31.396Z,74.46
2018-10-18T09:01:00.526Z,73.73
2018-10-18T09:03:30.069Z,73.63
2018-10-18T09:06:00.230Z,73.54
2018-10-18T09:08:29.240Z,73.60
2018-10-18T09:10:58.482Z,72.49
2018-10-18T09:13:27.462Z,72.75
2018-10-18T09:15:57.179Z,72.57
2018-10-18T09:18:26.047Z,72.01
2018-10-18T09:20:55.161Z,72.00
2018-10-18T09:23:24.841Z,71.89
2018-10-18T09:25:54.484Z,72.25
2018-10-18T09:28:23.884Z,71.65
2018-10-18T09:30:53.863Z,72.04
2018-10-18T09:33:23.137Z,70.56
2018-10-18T09:35:52.725Z,70.82
2018-10-18T09:38:22.255Z,69.99
2018-10-18T09:40:51.384Z,69.76
2018-10-18T09:43:20.711Z,70.11
2018-10-18T09:45:49.914Z,69.63
2018-10-18T09:48:18.953Z,68.65
2018-10-18T09:50:48.614Z,68.82
2018-10-18T09:53:18.378Z,68.54
2018-10-18T09:55:47.565Z,67.50
2018-10-18T09:58:16.807Z,66.96
2018-10-18T10:00:51.063Z,66.26
2018-10-18T10:03:20.755Z,66.56
2018-10-18T10:05:51.024Z,66.63
2018-10-18T10:08:20.474Z,67.22
2018-10-18T10:10:50.299Z,65.89
2018-10-18T10:13:19.870Z,65.75
2018-10-18T10:15:49.349Z,65.95
2018-10-18T10:18:18.640Z,65.61
2018-10-18T10:20:47.703Z,65.29
2018-10-18T10:23:17.927Z,65.27
2018-10-18T10:25:47.645Z,64.71
2018-10-18T10:28:17.447Z,66.40
2018-10-18T10:30:48.175Z,65.17
2018-10-18T10:33:17.873Z,66.16
2018-10-18T10:35:47.042Z,65.66
2018-10-18T10:38:16.059Z,64.92
2018-10-18T10:40:45.176Z,65.20
2018-10-18T10:43:15.327Z,64.49
2018-10-18T10:45:44.605Z,63.38
2018-10-18T10:48:14.159Z,62.75
2018-10-18T10:50:44.020Z,62.64
2018-10-18T10:53:13.390Z,62.29
2018-10-18T10:55:42.715Z,62.11
2018-10-18T10:58:13.120Z,61.52
2018-10-18T11:01:18.909Z,61.70
2018-10-18T11:03:48.653Z,62.08
2018-10-18T11:06:17.996Z,63.10
2018-10-18T11:08:48.719Z,63.43
2018-10-18T11:11:18.610Z,63.59
2018-10-18T11:13:47.799Z,63.30
2018-10-18T11:16:16.996Z,64.06
2018-10-18T11:18:46.526Z,63.81
2018-10-18T11:21:17.186Z,64.02
2018-10-18T11:23:46.782Z,63.28
2018-10-18T11:26:15.957Z,63.85
2018-10-18T11:28:47.296Z,64.34
2018-10-18T11:31:16.439Z,64.27
2018-10-18T11:33:45.846Z,63.37
2018-10-18T11:36:15.100Z,63.02
2018-10-18T11:38:44.452Z,64.22
2018-10-18T11:41:13.561Z,64.89
2018-10-18T11:43:42.676Z,65.43
2018-10-18T11:46:12.353Z,65.94
2018-10-18T11:48:41.372Z,65.50
2018-10-18T11:51:11.332Z,65.74
2018-10-18T11:53:40.517Z,65.49
2018-10-18T11:56:10.828Z,65.55
2018-10-18T11:58:40.167Z,65.02
2018-10-18T12:01:09.430Z,65.65
2018-10-18T12:03:39.104Z,65.72
2018-10-18T12:06:09.418Z,65.33
2018-10-18T12:08:39.271Z,66.09
2018-10-18T12:11:08.658Z,66.25
2018-10-18T12:13:38.737Z,66.62
2018-10-18T12:16:09.160Z,66.84
2018-10-18T12:18:39.279Z,66.46
2018-10-18T12:21:09.218Z,67.04
2018-10-18T12:23:38.457Z,66.42
2018-10-18T12:26:08.484Z,66.82
2018-10-18T12:28:40.561Z,66.88
2018-10-18T12:31:09.580Z,66.89
2018-10-18T12:33:39.025Z,67.58
2018-10-18T12:36:08.872Z,67.98
2018-10-18T12:38:38.368Z,68.92
2018-10-18T12:41:07.529Z,69.32
2018-10-18T12:43:37.264Z,70.03
2018-10-18T12:46:07.114Z,70.44
2018-10-18T12:48:36.411Z,70.42
2018-10-18T12:51:05.403Z,71.46
2018-10-18T12:53:34.471Z,71.59
2018-10-18T12:56:03.727Z,71.66
2018-10-18T12:58:32.844Z,72.69
2018-10-18T13:01:02.207Z,72.51
2018-10-18T13:03:31.454Z,73.74
2018-10-18T13:06:00.517Z,72.85
2018-10-18T13:08:29.942Z,73.55
2018-10-18T13:10:59.696Z,73.27
2018-10-18T13:13:29.107Z,74.73
2018-10-18T13:15:59.093Z,73.95
2018-10-18T13:18:28.975Z,74.41
2018-10-18T13:20:59.330Z,74.85
2018-10-18T13:23:28.732Z,75.98
2018-10-18T13:25:58.537Z,75.87
2018-10-18T13:28:29.009Z,75.83
2018-10-18T13:30:58.054Z,76.71
2018-10-18T13:33:27.591Z,76.43
2018-10-18T13:35:57.596Z,76.49
2018-10-18T13:38:28.044Z,77.05
2018-10-18T13:40:57.441Z,77.04
2018-10-18T13:43:26.487Z,76.60
2018-10-18T13:45:56.226Z,77.52
2018-10-18T13:48:25.308Z,77.08
2018-10-18T13:50:54.302Z,77.40
2018-10-18T13:53:23.760Z,77.34
2018-10-18T13:55:53.459Z,78.16
2018-10-18T13:58:23.051Z,77.91
2018-10-18T14:00:52.751Z,78.08
2018-10-18T14:03:22.683Z,78.62
2018-10-18T14:05:52.283Z,78.38
2018-10-18T14:08:21.641Z,78.58
2018-10-18T14:10:51.473Z,79.06
2018-10-18T14:13:21.127Z,79.19
2018-10-18T14:15:52.841Z,79.52
2018-10-18T14:18:24.113Z,79.50
2018-10-18T14:20:53.568Z,80.09
2018-10-18T14:23:24.107Z,80.08
2018-10-18T14:25:54.048Z,80.16
2018-10-18T14:28:23.321Z,80.58
2018-10-18T14:30:54.492Z,81.41
2018-10-18T14:33:26.392Z,80.18
2018-10-18T14:35:56.665Z,80.94
2018-10-18T14:38:27.441Z,81.04
2018-10-18T14:41:00.941Z,81.07
2018-10-18T14:43:31.307Z,81.39
2018-10-18T14:46:01.530Z,81.55
2018-10-18T14:48:31.077Z,81.75
2018-10-18T14:51:01.373Z,81.22
2018-10-18T14:53:31.525Z,81.40
2018-10-18T14:56:01.919Z,82.46
2018-10-18T14:58:32.172Z,82.09
2018-10-18T15:01:02.382Z,81.40
2018-10-18T15:03:32.994Z,82.09
2018-10-18T15:06:02.686Z,82.40
2018-10-18T15:08:31.799Z,81.63
2018-10-18T15:11:01.265Z,82.47
2018-10-18T15:13:31.640Z,81.92
2018-10-18T15:16:00.762Z,82.29
2018-10-18T15:18:30.969Z,82.01
2018-10-18T15:21:00.112Z,82.21
2018-10-18T15:23:29.112Z,82.69
2018-10-18T15:25:58.663Z,82.66
2018-10-18T15:28:27.829Z,82.32
2018-10-18T15:30:57.787Z,81.86
2018-10-18T15:33:27.999Z,82.91
2018-10-18T15:35:57.809Z,82.94
2018-10-18T15:38:27.831Z,82.82
2018-10-18T15:40:58.042Z,83.17
2018-10-18T15:43:27.709Z,83.01
2018-10-18T15:45:57.704Z,82.56
2018-10-18T15:48:27.722Z,82.63
2018-10-18T15:50:57.202Z,83.08
2018-10-18T15:53:26.505Z,82.62
2018-10-18T15:55:56.055Z,82.59
2018-10-18T15:58:25.895Z,82.65
2018-10-18T16:00:55.133Z,83.59
2018-10-18T16:03:25.081Z,82.78
2018-10-18T16:05:55.545Z,83.62
2018-10-18T16:08:24.727Z,83.51
2018-10-18T16:10:54.656Z,83.47
2018-10-18T16:13:24.364Z,83.58
2018-10-18T16:15:53.534Z,84.17
2018-10-18T16:18:23.320Z,83.86
2018-10-18T16:20:52.691Z,83.59
2018-10-18T16:23:22.822Z,84.31
2018-10-18T16:25:52.601Z,83.90
2018-10-18T16:28:22.561Z,84.06
2018-10-18T16:30:52.326Z,84.25
2018-10-18T16:33:21.499Z,84.96
2018-10-18T16:35:50.729Z,84.75
2018-10-18T16:38:20.144Z,85.44
2018-10-18T16:40:49.463Z,84.94
2018-10-18T16:43:20.303Z,85.09
2018-10-18T16:45:49.549Z,85.04
2018-10-18T16:48:19.039Z,85.58
2018-10-18T16:50:47.866Z,86.18
2018-10-18T16:53:18.468Z,86.19
2018-10-18T16:55:47.557Z,86.99
2018-10-18T16:58:17.440Z,87.19
2018-10-18T17:00:48.432Z,88.06
2018-10-18T17:03:17.714Z,87.62
2018-10-18T17:05:46.910Z,87.06
2018-10-18T17:08:16.752Z,87.98
2018-10-18T17:10:46.156Z,88.85
2018-10-18T17:13:16.048Z,88.50
2018-10-18T17:15:45.303Z,89.18
2018-10-18T17:18:14.496Z,89.02
2018-10-18T17:20:43.611Z,89.25
2018-10-18T17:23:12.655Z,89.96
2018-10-18T17:25:41.869Z,89.03
2018-10-18T17:28:12.016Z,89.54
2018-10-18T17:30:41.359Z,89.11
2018-10-18T17:33:10.689Z,89.25
2018-10-18T17:35:39.884Z,89.77
2018-10-18T17:38:09.242Z,89.41
2018-10-18T17:40:38.887Z,89.64
2018-10-18T17:43:08.507Z,89.13
2018-10-18T17:45:38.183Z,89.52
2018-10-18T17:48:07.517Z,89.60
2018-10-18T17:50:36.550Z,89.35
2018-10-18T17:53:05.825Z,88.54
2018-10-18T17:55:35.456Z,88.30
2018-10-18T17:58:04.801Z,88.72
2018-10-18T18:00:34.161Z,87.96
2018-10-18T18:03:04.298Z,87.79
2018-10-18T18:05:34.335Z,87.45
2018-10-18T18:08:03.249Z,87.44
2018-10-18T18:10:32.099Z,87.33
2018-10-18T18:13:01.936Z,87.69
2018-10-18T18:15:32.360Z,86.80
2018-10-18T18:18:01.635Z,87.19
2018-10-18T18:20:30.931Z,87.02
2018-10-18T18:23:00.629Z,86.54
2018-10-18T18:25:29.870Z,86.04
2018-10-18T18:27:59.614Z,85.92
2018-10-18T18:30:30.600Z,85.73
2018-10-18T18:33:01.790Z,85.33
2018-10-18T18:35:31.412Z,85.70
2018-10-18T18:38:01.278Z,85.73
2018-10-18T18:40:30.993Z,85.33
2018-10-18T18:43:00.553Z,85.54
2018-10-18T18:45:34.609Z,85.27
2018-10-18T18:48:05.407Z,85.33
2018-10-18T18:50:34.245Z,84.96
2018-10-18T18:53:03.664Z,84.89
2018-10-18T18:55:33.739Z,84.59
2018-10-18T18:58:03.304Z,84.83
2018-10-18T19:00:33.928Z,84.26
2018-10-18T19:03:05.242Z,84.49
2018-10-18T19:05:36.048Z,84.00
2018-10-18T19:08:05.569Z,84.38
2018-10-18T19:10:35.495Z,83.46
2018-10-18T19:13:05.860Z,83.48
2018-10-18T19:15:36.166Z,82.70
2018-10-18T19:18:06.426Z,82.79
2018-10-18T19:20:39.741Z,83.04
2018-10-18T19:23:10.405Z,82.88
2018-10-18T19:25:40.758Z,81.92
2018-10-18T19:28:10.078Z,81.99
2018-10-18T19:30:39.594Z,81.74
2018-10-18T19:33:08.809Z,81.69
2018-10-18T19:35:37.713Z,81.27
2018-10-18T19:38:07.307Z,81.30
2018-10-18T19:40:37.377Z,80.58
2018-10-18T19:43:06.323Z,80.24
2018-10-18T19:45:35.950Z,80.46
2018-10-18T19:48:06.842Z,80.22
2018-10-18T19:50:36.709Z,79.82
2018-10-18T19:53:06.054Z,80.35
2018-10-18T19:55:35.630Z,80.09
2018-10-18T19:58:05.874Z,80.24
2018-10-18T20:00:35.098Z,80.03
2018-10-18T20:03:05.895Z,79.90
2018-10-18T20:05:36.138Z,78.42
2018-10-18T20:08:05.226Z,79.38
2018-10-18T20:10:34.343Z,78.54
2018-10-18T20:13:04.188Z,79.43
2018-10-18T20:15:35.456Z,79.13
2018-10-18T20:18:05.413Z,79.50
2018-10-18T20:20:34.503Z,80.02
2018-10-18T20:23:03.468Z,79.82
2018-10-18T20:25:33.120Z,79.27
2018-10-18T20:28:04.070Z,80.01
2018-10-18T20:30:33.210Z,79.86
2018-10-18T20:33:02.266Z,80.24
2018-10-18T20:35:34.053Z,79.95
2018-10-18T20:38:02.918Z,80.19
2018-10-18T20:40:32.125Z,80.14
2018-10-18T20:43:00.883Z,79.87
2018-10-18T20:45:36.593Z,79.96
2018-10-18T20:48:05.670Z,79.75
2018-10-18T20:50:34.686Z,79.93
2018-10-18T20:53:04.331Z,79.63
2018-10-18T20:55:34.115Z,79.41
2018-10-18T20:58:03.119Z,79.48
2018-10-18T21:00:32.561Z,79.32
2018-10-18T21:03:02.627Z,78.03
2018-10-18T21:05:32.649Z,77.90
2018-10-18T21:08:01.837Z,78.31
2018-10-18T21:10:30.658Z,77.61
2018-10-18T21:13:00.359Z,77.86
2018-10-18T21:15:29.647Z,77.11
2018-10-18T21:18:00.094Z,76.63
2018-10-18T21:20:29.204Z,76.21
2018-10-18T21:22:59.037Z,76.34
2018-10-18T21:25:30.151Z,76.42
2018-10-18T21:28:00.042Z,74.84
2018-10-18T21:30:30.519Z,74.88
2018-10-18T21:33:00.003Z,74.43
2018-10-18T21:35:31.865Z,74.91
2018-10-18T21:38:01.234Z,74.03
2018-10-18T21:40:30.829Z,73.49
2018-10-18T21:43:02.219Z,73.94
2018-10-18T21:45:32.771Z,73.35
2018-10-18T21:48:01.921Z,71.78
2018-10-18T21:50:32.916Z,71.31
2018-10-18T21:53:02.250Z,71.35
2018-10-18T21:55:31.773Z,71.82
2018-10-18T21:58:01.884Z,71.43
2018-10-18T22:00:36.411Z,71.50
2018-10-18T22:03:05.743Z,72.27
2018-10-18T22:05:35.007Z,71.69
2018-10-18T22:08:04.962Z,70.16
2018-10-18T22:10:33.870Z,68.83
2018-10-18T22:13:02.968Z,69.79
2018-10-18T22:15:31.863Z,69.96
2018-10-18T22:18:00.751Z,67.76
2018-10-18T22:20:30.288Z,68.68
2018-10-18T22:23:00.363Z,68.11
2018-10-18T22:25:30.252Z,67.64
2018-10-18T22:27:59.752Z,66.43
2018-10-18T22:30:29.345Z,67.48
2018-10-18T22:32:58.412Z,67.19
2018-10-18T22:35:27.567Z,66.10
2018-10-18T22:37:56.489Z,66.11
2018-10-18T22:40:25.715Z,66.26
2018-10-18T22:42:56.629Z,65.73
2018-10-18T22:45:26.505Z,65.20
2018-10-18T22:47:55.591Z,65.48
2018-10-18T22:50:24.662Z,65.36
2018-10-18T22:52:53.738Z,65.73
2018-10-18T22:55:23.395Z,64.51
2018-10-18T22:57:52.935Z,65.96
2018-10-18T23:00:22.093Z,65.00
2018-10-18T23:02:51.533Z,65.67
2018-10-18T23:05:21.812Z,66.45
2018-10-18T23:07:51.373Z,66.25
2018-10-18T23:10:20.358Z,66.68
2018-10-18T23:12:49.476Z,66.91
2018-10-18T23:15:18.513Z,66.99
2018-10-18T23:17:48.251Z,67.03
2018-10-18T23:20:17.655Z,67.20
2018-10-18T23:22:47.529Z,67.04
2018-10-18T23:25:17.067Z,67.76
2018-10-18T23:27:46.632Z,67.23
2018-10-18T23:30:17.057Z,66.97
2018-10-18T23:32:46.242Z,67.30
2018-10-18T23:35:15.719Z,67.87
2018-10-18T23:37:45.347Z,67.86
2018-10-18T23:40:15.376Z,67.83
2018-10-18T23:42:45.308Z,67.87
2018-10-18T23:45:15.670Z,68.66
2018-10-18T23:47:45.093Z,68.27
2018-10-18T23:50:14.127Z,68.76
2018-10-18T23:52:43.134Z,68.47
2018-10-18T23:55:12.214Z,68.68
2018-10-18T23:57:41.462Z,69.06
